Terminal Aerodrome Forecast
Issued by NWS Paducah, KY

Home | Current Version | Previous Version | Text Only | Print | Product List | Glossary On
Versions: 1 2 3 4 5 6 7 8 9 10 11 12 13 14 15 16 17 18 19 20 21 22
000
FTUS43 KPAH 142322
TAFEVV
TAF
KEVV 142322Z 1500/1524 15006KT P6SM OVC060
      TEMPO 1500/1503 -SN
     FM151100 18008KT P6SM OVC050
      TEMPO 1511/1514 -SN
     FM151400 21012KT 2SM -SN BR OVC020
     FM151800 24012KT 6SM BR OVC020
     FM152100 29010KT P6SM OVC060=

USA.gov is the U.S. government's official web portal to all federal, state and local government web resources and services.